Time;durP1;ratioP1;P1;durP2;ratioP2;P2;SDS_P1;SDS_P2;PMS_P1;PMS_P2;Temp;Humidity;BMP_temperature;BMP_pressure;BME280_temperature;BME280_humidity;BME280_pressure;Samples;Min_cycle;Max_cycle;Signal;HPM_P1;HPM_P2
2024/03/20 05:09:11;;;;;;;0.30;0.30;;;6.20;99.90;;;;;;4900023;29;20253;-62
2024/03/20 05:11:36;;;;;;;0.40;0.40;;;6.10;99.90;;;;;;4901297;29;20178;-62
2024/03/20 05:14:02;;;;;;;0.40;0.40;;;6.10;99.90;;;;;;4901275;29;20310;-62
2024/03/20 05:16:28;;;;;;;0.40;0.40;;;6.10;99.90;;;;;;4900960;29;20571;-63
2024/03/20 05:18:53;;;;;;;0.30;0.30;;;6.10;99.90;;;;;;4901115;29;20310;-62
2024/03/20 05:21:19;;;;;;;0.40;0.40;;;6.10;99.90;;;;;;4901257;29;20183;-63
2024/03/20 05:23:45;;;;;;;0.40;0.40;;;6.10;99.90;;;;;;4901319;29;20209;-62
2024/03/20 05:26:11;;;;;;;0.30;0.30;;;6.20;99.90;;;;;;4900627;29;20221;-62
2024/03/20 05:28:37;;;;;;;0.30;0.30;;;6.20;99.90;;;;;;4901251;29;20441;-63
2024/03/20 05:31:02;;;;;;;0.50;0.50;;;6.10;99.90;;;;;;4900919;29;20178;-63
2024/03/20 05:33:28;;;;;;;0.40;0.40;;;6.20;99.90;;;;;;4900961;29;20169;-60
2024/03/20 05:35:54;;;;;;;0.60;0.60;;;6.10;99.90;;;;;;4899459;29;20571;-62
2024/03/20 05:38:19;;;;;;;0.30;0.30;;;6.20;99.90;;;;;;4900950;29;20717;-64
2024/03/20 05:40:45;;;;;;;0.40;0.40;;;6.20;99.90;;;;;;4899575;29;20677;-63
2024/03/20 05:43:10;;;;;;;0.43;0.43;;;6.20;99.90;;;;;;4900910;29;20892;-62
2024/03/20 05:45:36;;;;;;;0.30;0.30;;;6.30;99.90;;;;;;4899707;29;20222;-60
2024/03/20 05:48:03;;;;;;;0.40;0.40;;;6.30;99.90;;;;;;4900516;29;20178;-63
2024/03/20 05:50:28;;;;;;;0.30;0.27;;;6.50;99.90;;;;;;4900570;29;20611;-63
2024/03/20 05:52:54;;;;;;;0.40;0.40;;;6.50;99.90;;;;;;4898964;29;20430;-64
2024/03/20 05:55:23;;;;;;;0.40;0.40;;;6.60;99.90;;;;;;4899944;29;20185;-62
2024/03/20 05:57:51;;;;;;;0.30;0.30;;;6.70;99.90;;;;;;4900534;29;20190;-64
2024/03/20 06:00:25;;;;;;;0.38;0.38;;;6.80;99.90;;;;;;4905968;29;20272;-62
2024/03/20 06:02:53;;;;;;;0.30;0.30;;;6.90;99.90;;;;;;4919345;29;20180;-62
2024/03/20 06:05:19;;;;;;;0.40;0.40;;;7.00;99.90;;;;;;4918183;29;20329;-62
2024/03/20 06:07:45;;;;;;;0.30;0.30;;;7.10;99.90;;;;;;4918880;29;20221;-62
2024/03/20 06:10:12;;;;;;;0.50;0.50;;;7.20;99.90;;;;;;4918904;29;20932;-60
2024/03/20 06:12:38;;;;;;;0.30;0.30;;;7.30;99.90;;;;;;4918806;29;20170;-61
2024/03/20 06:15:05;;;;;;;0.40;0.40;;;7.40;99.90;;;;;;4913711;29;20183;-61
2024/03/20 06:17:32;;;;;;;0.30;0.30;;;7.50;99.90;;;;;;4899871;29;20803;-60
2024/03/20 06:19:58;;;;;;;0.30;0.30;;;7.60;99.90;;;;;;4899989;29;20183;-60
2024/03/20 06:22:24;;;;;;;0.30;0.30;;;7.80;99.90;;;;;;4899989;29;20239;-60
2024/03/20 06:24:50;;;;;;;0.30;0.30;;;8.10;99.90;;;;;;4899066;29;20206;-63
2024/03/20 06:27:16;;;;;;;1.10;1.00;;;8.40;99.90;;;;;;4898718;29;20295;-61
2024/03/20 06:29:42;;;;;;;0.30;0.30;;;8.90;99.90;;;;;;4898178;29;20172;-60
2024/03/20 06:32:07;;;;;;;0.30;0.30;;;9.30;99.90;;;;;;4898080;29;20590;-61
2024/03/20 06:34:33;;;;;;;0.30;0.30;;;9.80;99.90;;;;;;4897316;29;20271;-62
2024/03/20 06:36:59;;;;;;;0.30;0.30;;;10.10;99.90;;;;;;4897285;29;20210;-62
2024/03/20 06:39:24;;;;;;;0.43;0.43;;;10.40;99.90;;;;;;4898055;29;20536;-64
2024/03/20 06:41:50;;;;;;;0.30;0.30;;;10.60;99.90;;;;;;4898056;29;20176;-62
2024/03/20 06:44:17;;;;;;;0.80;0.70;;;10.90;99.90;;;;;;4899365;29;20189;-62
2024/03/20 06:46:44;;;;;;;0.50;0.50;;;11.30;99.90;;;;;;4899095;29;20282;-61
2024/03/20 06:49:10;;;;;;;0.30;0.30;;;11.70;99.90;;;;;;4899678;29;20416;-61
2024/03/20 06:51:38;;;;;;;0.30;0.30;;;12.00;99.90;;;;;;4899314;29;20913;-59
2024/03/20 06:54:16;;;;;;;0.30;0.30;;;12.50;99.90;;;;;;4899332;29;20418;-61
2024/03/20 06:56:48;;;;;;;0.30;0.23;;;12.80;99.90;;;;;;4898825;29;20435;-61
2024/03/20 06:59:16;;;;;;;0.40;0.40;;;13.00;99.90;;;;;;4898892;29;20389;-59
2024/03/20 07:01:41;;;;;;;1.00;0.63;;;13.10;99.90;;;;;;4898864;29;20416;-61
2024/03/20 07:04:07;;;;;;;0.30;0.30;;;13.30;99.90;;;;;;4899512;29;20770;-59
2024/03/20 07:06:32;;;;;;;0.30;0.20;;;13.40;99.90;;;;;;4898806;29;20246;-60
2024/03/20 07:08:58;;;;;;;0.53;0.40;;;13.50;99.90;;;;;;4898980;29;20206;-62
2024/03/20 07:11:24;;;;;;;0.30;0.27;;;13.70;99.90;;;;;;4897630;29;20187;-61
2024/03/20 07:13:49;;;;;;;0.53;0.53;;;14.10;99.90;;;;;;4899139;29;20188;-60
2024/03/20 07:16:15;;;;;;;0.30;0.30;;;14.50;99.90;;;;;;4898727;29;20198;-59
2024/03/20 07:18:41;;;;;;;0.40;0.40;;;15.00;99.90;;;;;;4898230;29;20186;-60
2024/03/20 07:21:07;;;;;;;0.30;0.20;;;15.50;99.90;;;;;;4898990;29;20478;-60
2024/03/20 07:23:32;;;;;;;0.47;0.40;;;15.80;99.90;;;;;;4899251;29;20194;-60
2024/03/20 07:25:58;;;;;;;0.30;0.30;;;16.20;99.90;;;;;;4897614;29;20242;-59
2024/03/20 07:28:23;;;;;;;0.30;0.20;;;16.80;99.90;;;;;;4897316;29;20660;-63
2024/03/20 07:30:50;;;;;;;0.30;0.20;;;17.40;99.90;;;;;;4898049;29;20295;-61
2024/03/20 07:33:15;;;;;;;0.30;0.30;;;17.90;99.90;;;;;;4898699;29;20546;-60
2024/03/20 07:35:44;;;;;;;0.30;0.30;;;18.30;99.10;;;;;;4898077;29;20526;-60
2024/03/20 07:38:10;;;;;;;0.30;0.30;;;18.70;97.80;;;;;;4898558;29;20665;-62
2024/03/20 07:40:36;;;;;;;0.40;0.40;;;18.90;96.90;;;;;;4898513;29;20410;-61
2024/03/20 07:43:01;;;;;;;0.50;0.50;;;18.90;96.90;;;;;;4898444;29;20415;-63
2024/03/20 07:45:27;;;;;;;0.30;0.30;;;19.00;96.20;;;;;;4898065;29;20203;-61
2024/03/20 07:47:54;;;;;;;0.40;0.40;;;19.10;96.80;;;;;;4898472;29;20190;-60
2024/03/20 07:50:19;;;;;;;0.40;0.30;;;19.40;96.30;;;;;;4898402;29;20437;-63
2024/03/20 07:52:47;;;;;;;0.40;0.40;;;19.80;94.90;;;;;;4898260;29;20873;-63
2024/03/20 07:55:13;;;;;;;0.40;0.40;;;20.30;94.70;;;;;;4896604;29;20681;-63
2024/03/20 07:57:38;;;;;;;0.30;0.30;;;20.60;93.60;;;;;;4898416;29;20506;-61
2024/03/20 08:00:15;;;;;;;0.30;0.30;;;21.00;94.00;;;;;;4898060;29;20268;-61
2024/03/20 08:02:44;;;;;;;0.30;0.30;;;21.40;92.30;;;;;;4897923;29;20177;-60
2024/03/20 08:05:11;;;;;;;0.70;0.70;;;21.60;92.40;;;;;;4897770;29;20501;-63
2024/03/20 08:07:38;;;;;;;0.50;0.30;;;21.90;91.90;;;;;;4898010;29;20509;-62
2024/03/20 08:10:05;;;;;;;0.43;0.43;;;22.20;91.80;;;;;;4897951;29;20450;-63
2024/03/20 08:12:31;;;;;;;0.53;0.53;;;22.70;90.90;;;;;;4898097;29;20437;-63
2024/03/20 08:14:57;;;;;;;0.40;0.40;;;23.10;90.30;;;;;;4896376;29;20466;-61
2024/03/20 08:17:23;;;;;;;0.30;0.30;;;23.30;88.40;;;;;;4897641;29;20417;-60
2024/03/20 08:19:48;;;;;;;0.50;0.50;;;23.50;87.80;;;;;;4898249;29;20179;-63
2024/03/20 08:22:14;;;;;;;0.30;0.30;;;23.70;85.40;;;;;;4897990;29;20346;-64
2024/03/20 08:24:42;;;;;;;0.60;0.60;;;24.00;86.20;;;;;;4897640;29;20217;-64
2024/03/20 08:27:07;;;;;;;0.40;0.40;;;24.30;84.60;;;;;;4897845;29;20187;-63
2024/03/20 08:29:33;;;;;;;0.43;0.43;;;24.40;83.60;;;;;;4897566;29;20426;-65
2024/03/20 08:31:58;;;;;;;0.30;0.30;;;24.40;82.00;;;;;;4897757;29;20183;-62
2024/03/20 08:34:25;;;;;;;0.40;0.40;;;24.40;83.60;;;;;;4897411;29;20534;-64
2024/03/20 08:36:50;;;;;;;0.30;0.30;;;24.80;82.30;;;;;;4896330;29;20254;-62
2024/03/20 08:39:16;;;;;;;0.50;0.50;;;25.20;81.20;;;;;;4897707;29;20827;-63
2024/03/20 08:41:41;;;;;;;0.40;0.40;;;25.50;81.20;;;;;;4897802;29;20211;-62
2024/03/20 08:44:08;;;;;;;0.40;0.30;;;26.00;78.20;;;;;;4897696;29;20464;-63
2024/03/20 08:46:38;;;;;;;0.60;0.60;;;26.50;76.40;;;;;;4897264;29;20226;-64
2024/03/20 08:49:04;;;;;;;0.47;0.37;;;26.20;76.30;;;;;;4896238;29;20478;-64
2024/03/20 08:51:29;;;;;;;0.30;0.27;;;26.20;75.40;;;;;;4898178;29;20856;-61
2024/03/20 08:53:55;;;;;;;0.53;0.50;;;26.30;75.60;;;;;;4897534;29;20427;-62
2024/03/20 08:56:22;;;;;;;0.30;0.30;;;26.60;75.50;;;;;;4897223;29;20229;-64
2024/03/20 08:58:50;;;;;;;0.30;0.30;;;27.20;73.20;;;;;;4897746;29;20702;-61
2024/03/20 09:01:16;;;;;;;0.40;0.40;;;27.40;72.50;;;;;;4897681;29;20431;-60
2024/03/20 09:03:45;;;;;;;0.70;0.70;;;27.60;71.20;;;;;;4897525;29;20397;-61
2024/03/20 09:06:11;;;;;;;0.30;0.30;;;27.50;71.30;;;;;;4897384;29;20446;-61
2024/03/20 09:08:36;;;;;;;0.30;0.30;;;27.50;71.40;;;;;;4897233;29;20777;-60
2024/03/20 09:11:02;;;;;;;0.37;0.37;;;27.30;71.20;;;;;;4897221;29;20227;-63
2024/03/20 09:13:29;;;;;;;0.70;0.50;;;27.20;71.30;;;;;;4897318;29;20553;-61
2024/03/20 09:15:55;;;;;;;0.30;0.20;;;27.10;70.80;;;;;;4897477;29;20222;-60
2024/03/20 09:18:21;;;;;;;0.33;0.33;;;27.00;70.20;;;;;;4897451;29;20944;-62
2024/03/20 09:20:46;;;;;;;0.40;0.30;;;26.90;70.60;;;;;;4897592;29;20175;-62
2024/03/20 09:23:12;;;;;;;0.40;0.40;;;26.80;70.40;;;;;;4897589;29;20195;-63
2024/03/20 09:25:38;;;;;;;0.30;0.20;;;26.70;69.40;;;;;;4897117;29;20203;-59
2024/03/20 09:28:04;;;;;;;1.27;0.50;;;26.70;71.10;;;;;;4897367;29;20529;-62
2024/03/20 09:30:29;;;;;;;0.30;0.20;;;26.80;70.50;;;;;;4897426;29;20535;-62
2024/03/20 09:32:56;;;;;;;0.30;0.30;;;26.50;71.60;;;;;;4897355;29;20179;-64
2024/03/20 09:35:22;;;;;;;0.50;0.50;;;26.40;71.80;;;;;;4896714;29;20210;-63
2024/03/20 09:37:47;;;;;;;0.33;0.33;;;26.40;72.00;;;;;;4897467;29;20906;-63
2024/03/20 09:40:17;;;;;;;1.53;0.80;;;26.60;71.90;;;;;;4897237;29;20175;-62
2024/03/20 09:42:43;;;;;;;0.90;0.70;;;26.80;71.30;;;;;;4900747;29;20175;-62
2024/03/20 09:45:15;;;;;;;0.30;0.20;;;27.20;70.50;;;;;;4900461;29;20786;-64
2024/03/20 09:47:42;;;;;;;0.40;0.30;;;27.70;68.10;;;;;;4900989;29;20452;-63
2024/03/20 09:50:14;;;;;;;0.30;0.30;;;27.70;69.10;;;;;;4900748;29;20944;-60
2024/03/20 09:52:40;;;;;;;0.50;0.50;;;27.70;68.30;;;;;;4899467;29;20419;-64
2024/03/20 09:55:16;;;;;;;0.43;0.43;;;27.90;67.50;;;;;;4900261;29;20452;-58
2024/03/20 09:57:43;;;;;;;0.67;0.67;;;27.80;67.20;;;;;;4899187;29;20178;-64
2024/03/20 10:00:16;;;;;;;0.40;0.40;;;27.60;67.60;;;;;;4900349;29;20770;-62
2024/03/20 10:02:47;;;;;;;0.30;0.30;;;27.50;67.30;;;;;;4900580;29;20407;-59
2024/03/20 10:05:13;;;;;;;0.30;0.30;;;27.50;69.20;;;;;;4899681;29;20900;-63
2024/03/20 10:07:43;;;;;;;0.60;0.60;;;27.40;67.90;;;;;;4899630;29;20498;-64
2024/03/20 10:10:14;;;;;;;0.30;0.30;;;27.10;68.30;;;;;;4898887;29;20434;-63
2024/03/20 10:12:40;;;;;;;0.30;0.30;;;26.70;68.30;;;;;;4899878;29;20498;-64
2024/03/20 10:15:10;;;;;;;0.57;0.50;;;26.50;72.00;;;;;;4899546;29;20459;-64
2024/03/20 10:17:38;;;;;;;0.30;0.30;;;26.50;70.30;;;;;;4900003;29;20440;-65
2024/03/20 10:20:24;;;;;;;0.50;0.30;;;26.60;68.70;;;;;;4899932;29;20419;-62
2024/03/20 10:22:50;;;;;;;0.30;0.30;;;26.70;70.10;;;;;;4900046;29;20408;-62
2024/03/20 10:25:17;;;;;;;0.30;0.30;;;27.20;68.20;;;;;;4899216;29;20411;-61
2024/03/20 10:27:48;;;;;;;0.40;0.40;;;27.30;67.60;;;;;;4898443;29;20578;-63
2024/03/20 10:30:19;;;;;;;0.43;0.43;;;26.80;68.90;;;;;;4899756;29;20401;-61
2024/03/20 10:32:50;;;;;;;0.30;0.30;;;26.30;68.60;;;;;;4899808;29;20503;-62
2024/03/20 10:35:20;;;;;;;0.37;0.30;;;25.90;70.40;;;;;;4899167;29;20777;-62
2024/03/20 10:37:49;;;;;;;0.40;0.40;;;25.90;70.00;;;;;;4900047;29;20393;-63
2024/03/20 10:40:19;;;;;;;0.53;0.53;;;25.50;71.30;;;;;;4899609;29;20469;-63
2024/03/20 10:42:47;;;;;;;0.30;0.30;;;25.10;72.00;;;;;;4899110;29;20431;-62
2024/03/20 10:45:13;;;;;;;0.40;0.30;;;24.60;72.00;;;;;;4897786;29;20423;-63
2024/03/20 10:47:44;;;;;;;0.50;0.40;;;24.50;72.70;;;;;;4898763;29;20900;-65
2024/03/20 10:50:19;;;;;;;0.30;0.30;;;24.60;73.70;;;;;;4899058;29;20729;-62
2024/03/20 10:52:47;;;;;;;0.40;0.40;;;24.40;73.30;;;;;;4898881;29;20396;-64
2024/03/20 10:55:18;;;;;;;0.30;0.30;;;24.40;73.70;;;;;;4898645;29;20442;-63
2024/03/20 10:57:46;;;;;;;0.30;0.20;;;24.40;72.90;;;;;;4898922;29;20394;-63
2024/03/20 11:00:17;;;;;;;0.30;0.30;;;24.60;71.30;;;;;;4899339;29;20378;-62
2024/03/20 11:02:47;;;;;;;0.30;0.30;;;24.70;71.00;;;;;;4899514;29;20756;-63
2024/03/20 11:05:41;;;;;;;0.50;0.50;;;24.70;69.10;;;;;;4899041;29;20415;-62
2024/03/20 11:08:08;;;;;;;0.60;0.40;;;24.60;70.20;;;;;;4899149;29;20431;-61
2024/03/20 11:10:35;;;;;;;0.30;0.30;;;24.80;70.30;;;;;;4899192;29;20423;-63
2024/03/20 11:13:02;;;;;;;0.40;0.30;;;25.10;69.40;;;;;;4899238;29;20896;-62
2024/03/20 11:15:29;;;;;;;0.30;0.30;;;25.30;68.00;;;;;;4898526;29;20949;-59
2024/03/20 11:17:55;;;;;;;0.30;0.30;;;24.90;69.40;;;;;;4898728;29;20474;-61
2024/03/20 11:20:34;;;;;;;0.30;0.30;;;24.40;69.40;;;;;;4897781;29;20398;-62
2024/03/20 11:23:06;;;;;;;0.30;0.30;;;24.00;70.90;;;;;;4899154;29;20432;-61
2024/03/20 11:25:39;;;;;;;0.30;0.30;;;23.50;71.10;;;;;;4898647;29;20408;-61
2024/03/20 11:28:05;;;;;;;0.30;0.20;;;23.10;71.60;;;;;;4898321;29;20392;-64
2024/03/20 11:30:31;;;;;;;0.30;0.30;;;22.70;72.80;;;;;;4896989;29;20892;-62
2024/03/20 11:32:57;;;;;;;0.40;0.40;;;22.30;74.10;;;;;;4898172;29;20385;-62
2024/03/20 11:35:23;;;;;;;0.30;0.30;;;22.10;74.00;;;;;;4897893;29;20210;-64
2024/03/20 11:37:50;;;;;;;0.37;0.33;;;22.00;73.70;;;;;;4898243;29;20382;-61
2024/03/20 11:40:15;;;;;;;0.30;0.30;;;21.90;75.20;;;;;;4898227;29;20995;-62
2024/03/20 11:42:41;;;;;;;0.40;0.40;;;21.80;74.50;;;;;;4898295;29;20423;-59
2024/03/20 11:45:11;;;;;;;1.40;1.00;;;21.80;73.50;;;;;;4898147;29;20186;-59
2024/03/20 11:47:37;;;;;;;0.40;0.40;;;21.80;72.60;;;;;;4898247;29;20657;-59
2024/03/20 11:50:03;;;;;;;0.30;0.30;;;21.90;72.50;;;;;;4898547;29;20438;-59
2024/03/20 11:52:28;;;;;;;0.30;0.20;;;21.90;73.90;;;;;;4898108;29;20904;-62
2024/03/20 11:54:55;;;;;;;0.30;0.30;;;21.80;73.60;;;;;;4897828;29;20477;-60
2024/03/20 11:57:21;;;;;;;0.30;0.30;;;21.80;75.60;;;;;;4898236;29;20199;-59
2024/03/20 11:59:51;;;;;;;0.30;0.20;;;21.80;75.90;;;;;;4898499;29;20489;-60
2024/03/20 12:02:23;;;;;;;0.47;0.43;;;21.70;76.00;;;;;;4898025;29;20920;-61
2024/03/20 12:04:48;;;;;;;0.30;0.20;;;21.70;75.30;;;;;;4897313;29;20443;-64
2024/03/20 12:07:27;;;;;;;0.30;0.20;;;21.70;76.40;;;;;;4898145;29;20462;-64
2024/03/20 12:09:53;;;;;;;0.30;0.30;;;21.90;76.80;;;;;;4898288;29;20261;-63
2024/03/20 12:12:20;;;;;;;0.30;0.30;;;22.00;76.80;;;;;;4898145;29;20419;-64
2024/03/20 12:14:47;;;;;;;0.30;0.20;;;22.00;73.40;;;;;;4897768;29;20445;-64
2024/03/20 12:17:12;;;;;;;0.30;0.30;;;21.80;72.40;;;;;;4898215;29;20413;-62
2024/03/20 12:19:38;;;;;;;0.60;0.60;;;21.70;73.90;;;;;;4898166;29;20419;-63
2024/03/20 12:22:05;;;;;;;0.30;0.30;;;21.70;75.30;;;;;;4897845;29;20179;-63
2024/03/20 12:24:32;;;;;;;0.30;0.30;;;21.70;74.00;;;;;;4897610;29;20515;-64
2024/03/20 12:26:58;;;;;;;0.30;0.20;;;21.70;71.30;;;;;;4897768;29;20414;-63
2024/03/20 12:29:24;;;;;;;0.47;0.37;;;21.60;71.20;;;;;;4897880;29;20464;-64
2024/03/20 12:31:50;;;;;;;0.30;0.30;;;21.60;72.20;;;;;;4897743;29;20386;-63
2024/03/20 12:34:16;;;;;;;0.30;0.30;;;21.60;73.20;;;;;;4897887;29;20272;-63
2024/03/20 12:36:41;;;;;;;0.30;0.30;;;21.60;73.40;;;;;;4897379;29;20830;-63
2024/03/20 12:39:08;;;;;;;0.30;0.20;;;21.60;73.30;;;;;;4898011;29;20466;-64
2024/03/20 12:41:34;;;;;;;0.30;0.27;;;21.70;72.20;;;;;;4897786;29;20182;-63
2024/03/20 12:44:00;;;;;;;0.30;0.30;;;21.70;71.70;;;;;;4897855;29;20415;-63
2024/03/20 12:46:26;;;;;;;0.30;0.20;;;21.80;70.50;;;;;;4897338;29;20583;-62
2024/03/20 12:48:52;;;;;;;0.40;0.40;;;21.80;69.60;;;;;;4897747;29;20502;-62
2024/03/20 12:51:19;;;;;;;0.37;0.37;;;21.90;70.00;;;;;;4896302;29;20197;-62
2024/03/20 12:53:46;;;;;;;0.40;0.40;;;21.90;69.40;;;;;;4897259;29;20509;-62
2024/03/20 12:56:11;;;;;;;0.30;0.30;;;21.90;70.70;;;;;;4896715;29;20471;-64
2024/03/20 12:58:37;;;;;;;0.30;0.30;;;21.80;72.20;;;;;;4897302;29;20445;-63
2024/03/20 13:01:04;;;;;;;0.50;0.50;;;21.80;71.90;;;;;;4897240;29;20233;-61
2024/03/20 13:03:31;;;;;;;0.30;0.30;;;21.90;73.80;;;;;;4897541;29;20177;-60
2024/03/20 13:05:57;;;;;;;0.63;0.40;;;21.90;73.80;;;;;;4896896;29;20454;-60
2024/03/20 13:08:24;;;;;;;0.30;0.20;;;21.80;71.90;;;;;;4897775;29;20502;-63
2024/03/20 13:10:52;;;;;;;0.30;0.20;;;21.80;71.60;;;;;;4896227;29;20817;-62
2024/03/20 13:13:22;;;;;;;0.30;0.30;;;21.90;70.00;;;;;;4897490;29;20492;-64
2024/03/20 13:15:49;;;;;;;0.30;0.30;;;21.90;70.00;;;;;;4899067;29;21028;-61
2024/03/20 13:18:32;;;;;;;0.30;0.20;;;21.70;69.10;;;;;;4900732;29;20418;-66
2024/03/20 13:21:05;;;;;;;0.30;0.20;;;21.70;68.40;;;;;;4899703;29;20478;-63
2024/03/20 13:23:31;;;;;;;0.30;0.20;;;21.70;69.10;;;;;;4900919;29;20396;-62
2024/03/20 13:25:57;;;;;;;0.30;0.20;;;21.60;68.20;;;;;;4900521;29;20414;-62
2024/03/20 13:28:29;;;;;;;0.40;0.40;;;21.60;68.60;;;;;;4900641;29;20896;-64
2024/03/20 13:30:55;;;;;;;0.30;0.20;;;21.60;69.10;;;;;;4900985;29;20418;-63
2024/03/20 13:33:21;;;;;;;0.30;0.30;;;21.60;69.50;;;;;;4900738;29;20949;-64
2024/03/20 13:35:47;;;;;;;0.40;0.30;;;21.40;70.80;;;;;;4900013;29;20478;-65
2024/03/20 13:38:19;;;;;;;0.30;0.30;;;21.30;70.80;;;;;;4901062;29;20179;-61
2024/03/20 13:40:51;;;;;;;0.40;0.40;;;21.20;69.80;;;;;;4900471;29;20723;-65
2024/03/20 13:45:54;;;;;;;0.40;0.40;;;21.20;69.10;;;;;;4898521;29;20447;-64
2024/03/20 13:48:20;;;;;;;0.30;0.30;;;21.10;69.30;;;;;;4898638;29;20173;-63
2024/03/20 13:50:49;;;;;;;0.30;0.30;;;21.00;69.90;;;;;;4898562;29;20764;-63
2024/03/20 13:53:16;;;;;;;0.30;0.30;;;20.90;69.70;;;;;;4898447;29;20426;-64
2024/03/20 13:55:42;;;;;;;0.30;0.30;;;20.90;68.30;;;;;;4898071;29;20519;-65
2024/03/20 13:58:07;;;;;;;0.30;0.30;;;21.00;67.00;;;;;;4899103;29;20405;-63
2024/03/20 14:00:33;;;;;;;0.30;0.30;;;21.10;66.60;;;;;;4899813;29;20187;-64
2024/03/20 14:02:59;;;;;;;0.30;0.30;;;21.10;66.60;;;;;;4900150;29;20261;-64
2024/03/20 14:05:26;;;;;;;0.30;0.30;;;21.10;66.90;;;;;;4900008;29;20195;-64
2024/03/20 14:07:52;;;;;;;0.30;0.20;;;21.00;66.30;;;;;;4900033;29;20445;-64
2024/03/20 14:10:19;;;;;;;0.30;0.30;;;21.10;67.70;;;;;;4899028;29;20823;-64
2024/03/20 14:12:45;;;;;;;0.30;0.20;;;21.00;65.50;;;;;;4900448;29;20214;-64
2024/03/20 14:15:15;;;;;;;0.33;0.33;;;21.00;65.50;;;;;;4899575;29;20465;-65
2024/03/20 14:17:42;;;;;;;0.30;0.30;;;21.00;66.40;;;;;;4899616;29;20414;-65
2024/03/20 14:20:12;;;;;;;0.30;0.20;;;20.90;68.30;;;;;;4899711;29;20416;-63
2024/03/20 14:22:39;;;;;;;0.30;0.30;;;20.90;68.30;;;;;;4900001;29;20882;-65
2024/03/20 14:25:10;;;;;;;0.60;0.60;;;20.90;69.10;;;;;;4899625;29;20510;-64
2024/03/20 14:27:37;;;;;;;0.30;0.20;;;21.00;69.60;;;;;;4899431;29;20435;-64
2024/03/20 14:30:04;;;;;;;0.30;0.30;;;21.00;69.50;;;;;;4899862;29;20422;-63
2024/03/20 14:32:30;;;;;;;0.30;0.30;;;21.00;67.80;;;;;;4899675;29;20430;-65
2024/03/20 14:34:55;;;;;;;0.30;0.20;;;21.00;67.90;;;;;;4899822;29;20433;-63
2024/03/20 14:37:22;;;;;;;0.30;0.20;;;21.00;68.30;;;;;;4899831;29;20620;-64
2024/03/20 14:39:47;;;;;;;0.30;0.30;;;21.00;67.80;;;;;;4899829;29;20190;-62
2024/03/20 14:42:16;;;;;;;0.30;0.27;;;21.00;68.20;;;;;;4899931;29;20407;-64
2024/03/20 14:44:42;;;;;;;0.30;0.30;;;20.90;68.40;;;;;;4899411;29;20179;-62
2024/03/20 14:47:16;;;;;;;0.30;0.30;;;20.80;67.70;;;;;;4899664;29;20762;-64
2024/03/20 14:49:42;;;;;;;0.30;0.20;;;20.70;67.90;;;;;;4899616;29;20402;-63
2024/03/20 14:52:19;;;;;;;0.30;0.30;;;20.70;68.50;;;;;;4899630;29;20429;-63
2024/03/20 14:54:45;;;;;;;0.30;0.30;;;20.70;68.90;;;;;;4899336;29;20420;-63
2024/03/20 14:57:11;;;;;;;1.07;1.07;;;20.60;68.50;;;;;;4899197;29;20435;-63
2024/03/20 14:59:42;;;;;;;0.30;0.20;;;20.60;68.50;;;;;;4899436;29;20237;-63
2024/03/20 15:02:19;;;;;;;0.40;0.40;;;20.60;68.70;;;;;;4899661;29;20418;-64
2024/03/20 15:04:45;;;;;;;0.30;0.30;;;20.60;70.40;;;;;;4897908;29;20485;-64
2024/03/20 15:07:18;;;;;;;0.40;0.40;;;20.60;70.30;;;;;;4898921;29;20500;-63
2024/03/20 15:09:44;;;;;;;0.30;0.30;;;20.50;70.50;;;;;;4899321;29;20413;-64
2024/03/20 15:12:14;;;;;;;0.30;0.30;;;20.40;70.40;;;;;;4899389;29;20423;-64
2024/03/20 15:14:41;;;;;;;0.30;0.30;;;20.40;70.40;;;;;;4899229;29;20174;-64
2024/03/20 15:17:09;;;;;;;0.30;0.30;;;20.40;70.90;;;;;;4899010;29;20430;-62
2024/03/20 15:19:35;;;;;;;0.30;0.20;;;20.40;69.90;;;;;;4899049;29;20413;-64
2024/03/20 15:22:05;;;;;;;0.30;0.20;;;20.40;70.00;;;;;;4899007;29;20419;-63
2024/03/20 15:24:31;;;;;;;0.30;0.30;;;20.30;70.60;;;;;;4897807;29;20421;-64
2024/03/20 15:26:58;;;;;;;0.30;0.30;;;20.30;70.90;;;;;;4898790;29;20450;-64
2024/03/20 15:29:24;;;;;;;0.30;0.30;;;20.30;70.70;;;;;;4898977;29;20394;-64
2024/03/20 15:31:50;;;;;;;0.30;0.20;;;20.30;70.30;;;;;;4899012;29;20416;-64
2024/03/20 15:34:18;;;;;;;0.30;0.30;;;20.10;69.70;;;;;;4898863;29;20403;-65
2024/03/20 15:36:44;;;;;;;0.30;0.30;;;20.10;70.30;;;;;;4898364;29;20209;-65
2024/03/20 15:39:10;;;;;;;0.30;0.30;;;20.00;71.00;;;;;;4897878;29;20453;-64
2024/03/20 15:41:37;;;;;;;0.30;0.30;;;19.90;71.80;;;;;;4898605;29;20219;-64
2024/03/20 15:44:04;;;;;;;0.30;0.27;;;19.80;73.70;;;;;;4898507;29;20284;-63
2024/03/20 15:46:30;;;;;;;0.57;0.57;;;19.70;74.60;;;;;;4898341;29;20439;-63
2024/03/20 15:48:56;;;;;;;0.30;0.30;;;19.60;75.40;;;;;;4897308;29;20408;-64
2024/03/20 15:51:24;;;;;;;0.30;0.30;;;19.60;73.30;;;;;;4898537;29;20216;-64
2024/03/20 15:53:50;;;;;;;0.30;0.20;;;19.60;75.70;;;;;;4898330;29;20382;-64
2024/03/20 15:56:19;;;;;;;0.30;0.30;;;19.50;76.30;;;;;;4897980;29;20463;-62
2024/03/20 15:58:47;;;;;;;0.30;0.30;;;19.50;76.50;;;;;;4898492;29;20740;-62
2024/03/20 16:01:14;;;;;;;0.30;0.30;;;19.40;76.90;;;;;;4898467;29;20400;-63
2024/03/20 16:03:41;;;;;;;0.30;0.30;;;19.30;77.70;;;;;;4898448;29;20416;-65
2024/03/20 16:06:06;;;;;;;0.30;0.30;;;19.30;78.40;;;;;;4896715;29;20768;-62
2024/03/20 16:08:32;;;;;;;0.40;0.40;;;19.30;78.30;;;;;;4898086;29;20417;-64
2024/03/20 16:11:01;;;;;;;0.30;0.30;;;19.20;78.40;;;;;;4898338;29;20182;-65
2024/03/20 16:13:29;;;;;;;0.30;0.20;;;19.10;78.70;;;;;;4898247;29;20175;-64
2024/03/20 16:15:56;;;;;;;0.30;0.30;;;19.10;79.60;;;;;;4897861;29;20466;-63
2024/03/20 16:18:22;;;;;;;0.40;0.40;;;19.00;79.10;;;;;;4898438;29;20416;-64
2024/03/20 16:20:47;;;;;;;0.30;0.20;;;19.00;79.80;;;;;;4898108;29;20407;-64
2024/03/20 16:23:13;;;;;;;0.40;0.40;;;18.90;80.10;;;;;;4896736;29;20407;-62
2024/03/20 16:25:39;;;;;;;0.30;0.20;;;18.80;80.80;;;;;;4897800;29;20187;-62
2024/03/20 16:28:05;;;;;;;0.30;0.30;;;18.80;81.00;;;;;;4898032;29;20171;-63
2024/03/20 16:30:35;;;;;;;0.40;0.40;;;18.70;81.50;;;;;;4898023;29;20673;-64
2024/03/20 16:33:01;;;;;;;0.40;0.40;;;18.60;81.50;;;;;;4897843;29;20822;-63
2024/03/20 16:35:26;;;;;;;0.30;0.20;;;18.60;82.00;;;;;;4897492;29;20462;-62
2024/03/20 16:37:52;;;;;;;0.30;0.20;;;18.50;82.50;;;;;;4897958;29;20924;-62
2024/03/20 16:40:25;;;;;;;0.30;0.30;;;18.40;82.70;;;;;;4898034;29;20207;-64
2024/03/20 16:42:52;;;;;;;0.50;0.50;;;18.40;83.20;;;;;;4898045;29;20426;-64
2024/03/20 16:45:17;;;;;;;0.30;0.30;;;18.30;83.30;;;;;;4897110;29;20419;-64
2024/03/20 16:47:43;;;;;;;0.30;0.30;;;18.30;84.10;;;;;;4897681;29;20419;-61
2024/03/20 16:50:11;;;;;;;0.30;0.30;;;18.20;84.30;;;;;;4894366;29;20183;-61
2024/03/20 16:52:37;;;;;;;0.30;0.30;;;18.20;84.90;;;;;;4893135;29;20422;-59
2024/03/20 16:55:03;;;;;;;0.30;0.20;;;18.10;85.20;;;;;;4902572;29;20463;-60
2024/03/20 16:57:30;;;;;;;0.30;0.30;;;18.00;85.00;;;;;;4897972;29;20203;-60
2024/03/20 16:59:55;;;;;;;0.30;0.30;;;18.00;85.30;;;;;;4899686;29;20759;-60
2024/03/20 17:02:24;;;;;;;0.30;0.30;;;17.90;85.20;;;;;;4903879;29;20429;-60
2024/03/20 17:04:50;;;;;;;0.30;0.30;;;17.90;85.00;;;;;;4903780;29;20175;-60
2024/03/20 17:07:15;;;;;;;0.40;0.40;;;17.80;85.00;;;;;;4903471;29;20453;-58
2024/03/20 17:09:42;;;;;;;0.30;0.30;;;17.80;85.20;;;;;;4903537;29;20181;-57
2024/03/20 17:12:13;;;;;;;0.30;0.30;;;17.70;85.20;;;;;;4903701;29;20185;-58
2024/03/20 17:14:49;;;;;;;1.90;1.10;;;17.70;85.20;;;;;;4903471;29;20405;-61
2024/03/20 17:17:15;;;;;;;0.30;0.20;;;17.60;85.00;;;;;;4903803;29;20435;-61
2024/03/20 17:19:41;;;;;;;0.40;0.40;;;17.50;85.20;;;;;;4902837;29;20423;-62
2024/03/20 17:22:07;;;;;;;0.30;0.30;;;17.50;85.80;;;;;;4902870;29;20846;-60
2024/03/20 17:24:36;;;;;;;0.60;0.60;;;17.40;86.40;;;;;;4903436;29;20430;-61
2024/03/20 17:27:02;;;;;;;0.30;0.30;;;17.30;86.70;;;;;;4903370;29;20573;-59
2024/03/20 17:29:28;;;;;;;0.30;0.30;;;17.20;86.90;;;;;;4903610;29;20506;-65
2024/03/20 17:31:54;;;;;;;0.30;0.30;;;17.10;87.90;;;;;;4903614;29;20413;-61
2024/03/20 17:34:21;;;;;;;0.30;0.30;;;17.00;88.40;;;;;;4903701;29;20427;-63
2024/03/20 17:36:53;;;;;;;0.30;0.30;;;16.90;89.20;;;;;;4903193;29;20217;-60
2024/03/20 17:39:20;;;;;;;0.30;0.30;;;16.70;89.80;;;;;;4902886;29;20484;-62
2024/03/20 17:41:47;;;;;;;0.77;0.77;;;16.60;89.90;;;;;;4903201;29;20407;-61
2024/03/20 17:44:13;;;;;;;0.47;0.47;;;16.50;89.90;;;;;;4901315;29;20412;-64
2024/03/20 17:46:39;;;;;;;0.40;0.40;;;16.40;90.00;;;;;;4901146;29;20443;-62
2024/03/20 17:49:05;;;;;;;0.30;0.30;;;16.40;90.10;;;;;;4901367;29;20176;-62
2024/03/20 17:51:30;;;;;;;0.60;0.60;;;16.30;90.10;;;;;;4899469;29;20182;-64
2024/03/20 17:53:57;;;;;;;0.30;0.30;;;16.10;90.10;;;;;;4900529;29;20172;-64
2024/03/20 17:56:24;;;;;;;0.73;0.73;;;16.10;90.50;;;;;;4900121;29;20531;-62
2024/03/20 17:58:52;;;;;;;0.30;0.30;;;16.10;90.80;;;;;;4900357;29;20414;-63